South Lake Tahoe, California
Current Conditions -  °F | °C
As of 9:53 AM on Thursday 23 Oct 2014 (Local Time) from KTVL Reporting Station
Clear Clear  
Wind Chill: 60°   Ceiling: Unl
Heat Index: 60°   Visibility: 10mi
Dew Point: 26°   Wind: 8mph
Humidity: 27%   Direction: 180°S
Pressure: 30.18"   Gusts: NA
Location:  38.91°N, 120°W
Report Text: KTVL 231653Z AUTO 18007KT 140V210 10SM CLR 16/M03 A3018 RMK AO2 SLP176 T01561033
Loading
Personal Weather Stations






























Interactive Weather Map New forecast layout! Learn more

10-Day Weather Forecast

Advertisements
Track Severe Weather on mobile